West Dennis, MA (02670)

11:14 PM EDT on August 04, 2015 (GMT -0400)
West Harwich | | Change Station
CLOSE
Current Station
Personal Weather Station
Location: Harwich, MA
Elevation: 26 ft
Nearby Weather Stations

Elev 26 ft 41.66 °N, 70.12 °W | Updated 7 seconds ago

Partly Cloudy
Partly Cloudy
76.1 °F
Feels Like 76 °F
N
0.0
Wind Variable Wind from SE
Gusts 0.0 mph

Today
High -- | Low -- °F
--% Chance of Precip.
Yesterday
High -- | Low -- °F
Precip. -- in
5:37 AM 7:55 PM
Waning Gibbous, 72% visible
Pressure 29.87 in
Visibility 8.0 miles
Clouds Mostly Cloudy 1200 ft
Heat Index 76 °F
Dew Point 74 °F
Humidity 92%
Rainfall 0.25 in
Snow Depth Not available.
UV 0 out of 12
Pollen 7.30 out of 12
Air Quality Not available.
Flu Activity Not available.
METAR KHYA 050256Z AUTO 24010KT 8SM BKN012 24/22 A2987 RMK AO2 SLP114 T02440222 50004

More Conditions Fewer Conditions

Pressure 29.87 in
Visibility 8.0 miles
Clouds Mostly Cloudy 1200 ft
Heat Index 76 °F
Dew Point 74 °F
Humidity 92%
Rainfall 0.25 in
Snow Depth Not available.
UV 0 out of 12
Pollen 7.30 out of 12
Air Quality Not available.
Flu Activity Not available.
METAR KHYA 050256Z AUTO 24010KT 8SM BKN012 24/22 A2987 RMK AO2 SLP114 T02440222 50004

More Conditions Fewer Conditions

10-Day Weather Forecast

×

Almanac

Astronomy

Aug. 04, 2015 Rise Set
Actual Time
Civil Twilight
Nautical Twilight
Astronomical Twilight
Moon
Length of Visible Light
Length of Day
Tomorrow will be .
, % of the Moon is Illuminated

Today's Extremes

State Highs State Lows

Community

WunderPhotos

Upload Photos

1,844,085 photos uploaded!

WunderBlogs® & News

Nearby

Air Quality

  Air Quality AQ Index Pollutant
Not available.

Snow Depth

Station Depth Elevation

Earthquake Activity

City Distance Mag. Time & Date
Minimum magnitude displayed is 2.5.

Coastal Water Temperatures

Place Temperature

Stations

Nearby Weather Stations

Station Location Temp. Windchill Dew Point Humidity Wind Precip. Elev Updated Type